Time;durP1;ratioP1;P1;durP2;ratioP2;P2;SDS_P1;SDS_P2;PMS_P1;PMS_P2;Temp;Humidity;BMP_temperature;BMP_pressure;BME280_temperature;BME280_humidity;BME280_pressure;Samples;Min_cycle;Max_cycle;Signal;HPM_P1;HPM_P2
2022/05/23 00:00:11;;;;;;;7.87;4.53;;;18.90;99.90;;;;;;5023099;28;20201;-53
2022/05/23 00:02:38;;;;;;;7.10;4.57;;;18.90;99.90;;;;;;5021920;28;20208;-54
2022/05/23 00:05:06;;;;;;;8.17;4.47;;;18.90;99.90;;;;;;5025922;28;20239;-54
2022/05/23 00:07:36;;;;;;;9.83;4.93;;;18.90;99.90;;;;;;5023015;28;20335;-54
2022/05/23 00:10:06;;;;;;;10.50;4.77;;;18.90;99.90;;;;;;5026025;28;20230;-54
2022/05/23 00:12:33;;;;;;;8.10;4.20;;;18.80;99.90;;;;;;5022766;28;20206;-54
2022/05/23 00:15:00;;;;;;;6.17;5.00;;;18.70;99.90;;;;;;5022269;28;20212;-53
2022/05/23 00:17:26;;;;;;;6.30;4.40;;;18.80;99.90;;;;;;5020539;28;20229;-54
2022/05/23 00:19:53;;;;;;;6.23;4.33;;;18.80;99.90;;;;;;5021041;28;20227;-54
2022/05/23 00:22:20;;;;;;;6.77;4.00;;;18.80;99.90;;;;;;5022154;28;20642;-54
2022/05/23 00:24:47;;;;;;;6.50;4.67;;;18.80;99.90;;;;;;5023220;28;20296;-53
2022/05/23 00:27:18;;;;;;;8.43;4.77;;;18.70;99.90;;;;;;5023496;28;20588;-54
2022/05/23 00:29:45;;;;;;;9.00;4.77;;;18.70;99.90;;;;;;5024886;28;20687;-54
2022/05/23 00:37:53;;;;;;;7.93;4.40;;;18.60;99.90;;;;;;5020153;28;20713;-54
2022/05/23 00:40:41;;;;;;;7.00;4.67;;;18.50;99.90;;;;;;5017279;28;20290;-53
2022/05/23 00:43:25;;;;;;;5.93;4.33;;;18.50;99.90;;;;;;5017471;28;20311;-53
2022/05/23 00:45:55;;;;;;;8.43;4.67;;;18.60;99.90;;;;;;5023583;28;20248;-54
2022/05/23 00:48:26;;;;;;;6.90;4.00;;;18.50;99.90;;;;;;5027157;28;20240;-54
2022/05/23 00:51:02;;;;;;;6.47;4.33;;;18.50;99.90;;;;;;5026122;28;20644;-54
2022/05/23 00:53:46;;;;;;;8.33;4.23;;;18.40;99.90;;;;;;5027061;28;20272;-54
2022/05/23 00:56:15;;;;;;;9.00;4.60;;;18.40;99.90;;;;;;5030021;28;20717;-54
2022/05/23 00:59:02;;;;;;;7.33;4.37;;;18.50;99.90;;;;;;5027729;28;20557;-54
2022/05/23 01:01:32;;;;;;;9.57;4.80;;;18.50;99.90;;;;;;5030580;28;20625;-54
2022/05/23 01:03:59;;;;;;;6.73;4.30;;;18.50;99.90;;;;;;5026403;28;20262;-53
2022/05/23 01:06:27;;;;;;;8.07;4.40;;;18.30;99.90;;;;;;5025079;28;20240;-54
2022/05/23 01:08:56;;;;;;;7.13;4.47;;;18.30;99.90;;;;;;5029443;28;20657;-54
2022/05/23 01:11:24;;;;;;;7.97;4.30;;;18.20;99.90;;;;;;5027532;28;20200;-54
2022/05/23 01:13:53;;;;;;;7.00;4.30;;;18.30;99.90;;;;;;5024636;28;20197;-54
2022/05/23 01:16:21;;;;;;;7.30;4.50;;;18.20;99.90;;;;;;5024321;28;20202;-54
2022/05/23 01:18:49;;;;;;;10.57;5.10;;;18.30;99.90;;;;;;5028621;28;20220;-54
2022/05/23 01:21:40;;;;;;;8.30;5.40;;;18.20;99.90;;;;;;5028302;28;20266;-54
2022/05/23 01:24:11;;;;;;;6.90;4.23;;;18.20;99.90;;;;;;5023575;28;20640;-55
2022/05/23 01:26:38;;;;;;;8.40;6.20;;;18.10;99.90;;;;;;5033466;28;20239;-54
2022/05/23 01:29:12;;;;;;;6.23;4.57;;;18.10;99.90;;;;;;5024838;28;20224;-54
2022/05/23 01:31:40;;;;;;;9.40;4.47;;;18.10;99.90;;;;;;5032050;28;20323;-54
2022/05/23 01:34:07;;;;;;;6.70;4.53;;;18.10;99.90;;;;;;5028439;28;20204;-54
2022/05/23 01:36:34;;;;;;;7.60;4.10;;;18.00;99.90;;;;;;5026722;28;20300;-54
2022/05/23 01:39:01;;;;;;;6.07;4.70;;;18.00;99.90;;;;;;5024786;28;20649;-54
2022/05/23 01:41:28;;;;;;;5.47;4.50;;;18.00;99.90;;;;;;5027520;28;20304;-53
2022/05/23 01:43:55;;;;;;;8.57;5.33;;;18.00;99.90;;;;;;5027307;28;20235;-54
2022/05/23 01:46:22;;;;;;;9.50;4.70;;;17.90;99.90;;;;;;5024198;28;20296;-54
2022/05/23 01:48:49;;;;;;;10.17;4.60;;;17.90;99.90;;;;;;5028409;28;20243;-53
2022/05/23 01:51:15;;;;;;;4.90;4.40;;;17.90;99.90;;;;;;5027589;28;20196;-54
2022/05/23 01:53:42;;;;;;;6.30;4.03;;;18.00;99.90;;;;;;5031054;28;20316;-53
2022/05/23 01:56:09;;;;;;;8.50;4.63;;;18.00;99.90;;;;;;5031784;28;20244;-53
2022/05/23 02:01:21;;;;;;;6.43;4.23;;;18.00;99.90;;;;;;5026467;28;20205;-53
2022/05/23 02:03:49;;;;;;;8.00;5.13;;;18.00;99.90;;;;;;5029186;28;20208;-54
2022/05/23 02:06:16;;;;;;;8.17;4.97;;;18.00;99.90;;;;;;5023229;28;20615;-54
2022/05/23 02:08:43;;;;;;;5.33;4.47;;;18.00;99.90;;;;;;5030499;28;20664;-54
2022/05/23 02:11:10;;;;;;;6.53;4.87;;;17.90;99.90;;;;;;5032878;28;20719;-53
2022/05/23 02:13:40;;;;;;;7.53;4.47;;;17.90;99.90;;;;;;5023315;28;20385;-54
2022/05/23 02:16:06;;;;;;;7.20;4.53;;;17.90;99.90;;;;;;5027511;28;20712;-54
2022/05/23 02:18:34;;;;;;;8.00;4.60;;;17.80;99.90;;;;;;5027392;28;20208;-54
2022/05/23 02:21:00;;;;;;;8.13;4.20;;;17.80;99.90;;;;;;5022885;28;20221;-53
2022/05/23 02:23:27;;;;;;;11.77;4.87;;;17.80;99.90;;;;;;5023121;28;20251;-54
2022/05/23 02:25:54;;;;;;;5.37;4.23;;;17.80;99.90;;;;;;5022238;28;20284;-54
2022/05/23 02:28:21;;;;;;;5.27;3.73;;;17.80;99.90;;;;;;5018793;28;20577;-53
2022/05/23 02:30:48;;;;;;;6.73;4.10;;;17.80;99.90;;;;;;5027365;28;20366;-55
2022/05/23 02:33:15;;;;;;;11.27;4.77;;;17.80;99.90;;;;;;5025737;28;20204;-54
2022/05/23 02:35:42;;;;;;;8.60;4.50;;;17.70;99.90;;;;;;5029561;28;20360;-54
2022/05/23 02:38:09;;;;;;;5.97;4.40;;;17.70;99.90;;;;;;5028871;28;20217;-54
2022/05/23 02:40:36;;;;;;;4.97;4.10;;;17.70;99.90;;;;;;5029883;28;20229;-53
2022/05/23 02:43:02;;;;;;;7.20;4.87;;;17.70;99.90;;;;;;5023141;28;20193;-54
2022/05/23 02:45:29;;;;;;;6.47;4.43;;;17.70;99.90;;;;;;5023175;28;20274;-52
2022/05/23 02:47:56;;;;;;;7.13;4.47;;;17.70;99.90;;;;;;5018699;28;20207;-53
2022/05/23 02:50:23;;;;;;;6.40;4.40;;;17.70;99.90;;;;;;5022525;28;20336;-53
2022/05/23 02:52:50;;;;;;;7.07;4.70;;;17.60;99.90;;;;;;5018432;28;20292;-53
2022/05/23 02:55:17;;;;;;;7.60;5.37;;;17.60;99.90;;;;;;5020288;28;20224;-54
2022/05/23 02:57:43;;;;;;;9.97;4.63;;;17.50;99.90;;;;;;5019488;28;20381;-53
2022/05/23 03:00:11;;;;;;;8.23;4.37;;;17.50;99.90;;;;;;5020184;28;20203;-54
2022/05/23 03:05:23;;;;;;;6.80;4.93;;;17.50;99.90;;;;;;5020725;28;20568;-53
2022/05/23 03:07:50;;;;;;;7.87;4.60;;;17.40;99.90;;;;;;5018492;28;20771;-54
2022/05/23 03:10:17;;;;;;;6.27;4.63;;;17.40;99.90;;;;;;5018300;28;20300;-53
2022/05/23 03:12:45;;;;;;;7.43;4.33;;;17.30;99.90;;;;;;5019670;28;20209;-53
2022/05/23 03:15:12;;;;;;;7.27;4.90;;;17.40;99.90;;;;;;5018113;28;20211;-53
2022/05/23 03:17:40;;;;;;;6.77;4.90;;;17.40;99.90;;;;;;5021351;28;20244;-54
2022/05/23 03:20:08;;;;;;;7.53;4.77;;;17.30;99.90;;;;;;5021274;28;20348;-53
2022/05/23 03:28:06;;;;;;;6.40;4.83;;;17.30;99.90;;;;;;5019662;28;20238;-54
2022/05/23 03:30:34;;;;;;;6.50;4.63;;;17.30;99.90;;;;;;5020322;28;20197;-54
2022/05/23 03:33:01;;;;;;;7.23;4.90;;;17.30;99.90;;;;;;5027298;28;20311;-54
2022/05/23 03:35:29;;;;;;;9.30;5.20;;;17.20;99.90;;;;;;5021972;28;20208;-54
2022/05/23 03:37:57;;;;;;;8.10;4.90;;;17.10;99.90;;;;;;5020635;28;20206;-53
2022/05/23 03:40:25;;;;;;;9.37;4.60;;;17.20;99.90;;;;;;5020908;28;20296;-54
2022/05/23 03:42:51;;;;;;;7.30;5.37;;;17.30;99.90;;;;;;5019199;28;20678;-53
2022/05/23 03:45:19;;;;;;;11.60;5.60;;;17.30;99.90;;;;;;5020049;28;20553;-54
2022/05/23 03:47:46;;;;;;;6.50;5.07;;;17.20;99.90;;;;;;5023228;28;20286;-54
2022/05/23 03:50:13;;;;;;;9.60;5.20;;;17.20;99.90;;;;;;5023420;28;20619;-54
2022/05/23 03:52:40;;;;;;;7.90;4.83;;;17.20;99.90;;;;;;5023494;28;20249;-55
2022/05/23 03:55:07;;;;;;;7.67;4.70;;;17.10;99.90;;;;;;5023279;28;20216;-53
2022/05/23 03:57:34;;;;;;;7.77;4.83;;;17.20;99.90;;;;;;5020516;28;20321;-54
2022/05/23 04:00:01;;;;;;;6.90;4.87;;;17.10;99.90;;;;;;5021761;28;20285;-53
2022/05/23 04:02:28;;;;;;;6.73;4.97;;;17.10;99.90;;;;;;5019875;28;20332;-53
2022/05/23 04:04:55;;;;;;;6.43;4.70;;;17.10;99.90;;;;;;5023634;28;20193;-54
2022/05/23 04:07:21;;;;;;;9.60;5.40;;;17.00;99.90;;;;;;5032251;28;20331;-54
2022/05/23 04:09:48;;;;;;;7.03;4.90;;;17.00;99.90;;;;;;5030301;28;20700;-56
2022/05/23 04:12:15;;;;;;;8.10;5.00;;;17.10;99.90;;;;;;5025733;28;20277;-52
2022/05/23 04:14:42;;;;;;;7.57;5.43;;;17.10;99.90;;;;;;5023683;28;20805;-55
2022/05/23 04:17:10;;;;;;;10.63;5.20;;;17.10;99.90;;;;;;5023371;28;20320;-54
2022/05/23 04:19:37;;;;;;;6.63;4.83;;;17.10;99.90;;;;;;5020486;28;20223;-54
2022/05/23 04:22:03;;;;;;;7.97;5.07;;;17.10;99.90;;;;;;5022976;28;20701;-54
2022/05/23 04:24:30;;;;;;;8.20;5.27;;;17.10;99.90;;;;;;5021602;28;20304;-54
2022/05/23 04:26:57;;;;;;;7.27;5.27;;;17.10;99.90;;;;;;5021256;28;20623;-54
2022/05/23 04:29:25;;;;;;;6.60;5.20;;;17.10;99.90;;;;;;5020501;28;20235;-54
2022/05/23 04:31:51;;;;;;;12.77;5.53;;;17.10;99.90;;;;;;5022224;28;20315;-54
2022/05/23 04:37:04;;;;;;;8.20;5.37;;;17.10;99.90;;;;;;5024311;28;20295;-54
2022/05/23 04:39:31;;;;;;;8.57;5.83;;;17.10;99.90;;;;;;5022188;28;20769;-59
2022/05/23 04:42:00;;;;;;;10.07;6.33;;;17.20;99.90;;;;;;5022866;28;20226;-54
2022/05/23 04:44:27;;;;;;;6.70;5.50;;;17.20;99.90;;;;;;5023572;28;20758;-54
2022/05/23 04:49:45;;;;;;;10.43;5.30;;;17.20;99.90;;;;;;5024750;28;20291;-54
2022/05/23 04:52:13;;;;;;;9.93;6.40;;;17.10;99.90;;;;;;5024069;28;21597;-54
2022/05/23 04:54:41;;;;;;;10.77;5.93;;;17.20;99.90;;;;;;5022979;28;20298;-54
2022/05/23 04:57:10;;;;;;;12.17;6.00;;;17.20;99.90;;;;;;5018877;28;20608;-53
2022/05/23 04:59:37;;;;;;;8.57;6.23;;;17.20;99.90;;;;;;5024291;28;20314;-54
2022/05/23 05:02:05;;;;;;;10.90;6.40;;;17.10;99.90;;;;;;5024675;28;20660;-53
2022/05/23 05:04:33;;;;;;;9.93;6.63;;;17.10;99.90;;;;;;5022072;28;20662;-54
2022/05/23 05:06:59;;;;;;;9.27;7.20;;;17.20;99.90;;;;;;5022553;28;20344;-54
2022/05/23 05:09:27;;;;;;;11.57;6.40;;;17.20;99.90;;;;;;5025136;28;20231;-53
2022/05/23 05:11:54;;;;;;;8.87;6.53;;;17.20;99.90;;;;;;5021245;28;20282;-54
2022/05/23 05:14:20;;;;;;;8.67;7.07;;;17.20;99.90;;;;;;5021199;28;20228;-54
2022/05/23 05:16:47;;;;;;;10.13;7.37;;;17.00;99.90;;;;;;5021712;28;20311;-54
2022/05/23 05:19:15;;;;;;;10.17;6.93;;;17.10;99.90;;;;;;5021625;28;20216;-54
2022/05/23 05:21:42;;;;;;;10.30;7.60;;;17.10;99.90;;;;;;5020627;28;20378;-53
2022/05/23 05:24:14;;;;;;;9.77;8.00;;;17.20;99.90;;;;;;5020729;28;20230;-53
2022/05/23 05:26:41;;;;;;;11.47;7.63;;;17.30;99.90;;;;;;5017300;28;20263;-54
2022/05/23 05:29:08;;;;;;;8.77;7.07;;;17.40;99.90;;;;;;5022364;28;20613;-54
2022/05/23 05:31:45;;;;;;;9.50;7.63;;;17.50;99.90;;;;;;5027461;28;20200;-54
2022/05/23 05:34:28;;;;;;;9.03;8.10;;;17.50;99.90;;;;;;5020955;28;20727;-54
2022/05/23 05:37:00;;;;;;;14.07;8.07;;;17.60;99.90;;;;;;5029503;28;20196;-53
2022/05/23 05:39:31;;;;;;;9.43;8.07;;;17.60;99.90;;;;;;5024439;28;20215;-54
2022/05/23 05:42:05;;;;;;;9.43;8.40;;;17.60;99.90;;;;;;5023698;28;20204;-53
2022/05/23 05:44:35;;;;;;;11.33;8.83;;;17.60;99.90;;;;;;5019891;28;20307;-54
2022/05/23 05:47:09;;;;;;;11.03;8.10;;;17.60;99.90;;;;;;5022455;28;20224;-54
2022/05/23 05:49:56;;;;;;;12.37;8.80;;;17.60;99.90;;;;;;5019278;28;20546;-54
2022/05/23 05:52:26;;;;;;;9.80;7.87;;;17.60;99.90;;;;;;5015033;28;20314;-55
2022/05/23 05:54:54;;;;;;;11.90;8.50;;;17.60;99.90;;;;;;5012039;28;20193;-54
2022/05/23 05:57:23;;;;;;;10.87;8.90;;;17.70;99.90;;;;;;5007540;28;20259;-53
2022/05/23 05:59:50;;;;;;;14.27;8.93;;;17.70;99.90;;;;;;5010141;28;20205;-55
2022/05/23 06:02:17;;;;;;;10.37;9.33;;;17.70;99.90;;;;;;5020209;28;20669;-53
2022/05/23 06:04:45;;;;;;;10.07;8.67;;;17.80;99.90;;;;;;5019249;28;20280;-56
2022/05/23 06:12:53;;;;;;;15.90;9.20;;;17.90;99.90;;;;;;5012140;28;20232;-54
2022/05/23 06:15:20;;;;;;;10.17;8.30;;;18.00;99.90;;;;;;5016867;28;20228;-53
2022/05/23 06:17:46;;;;;;;10.67;9.57;;;18.00;99.90;;;;;;5015024;28;20661;-53
2022/05/23 06:20:14;;;;;;;13.47;9.30;;;18.00;99.90;;;;;;5010032;28;20793;-54
2022/05/23 06:22:41;;;;;;;13.90;9.37;;;18.00;99.90;;;;;;5009194;28;20667;-54
2022/05/23 06:25:09;;;;;;;9.93;9.03;;;18.10;99.90;;;;;;5018771;28;20380;-54
2022/05/23 06:27:36;;;;;;;12.00;9.43;;;18.10;99.90;;;;;;5011553;28;20201;-53
2022/05/23 06:30:06;;;;;;;10.43;9.33;;;18.20;99.90;;;;;;5022984;28;20230;-54
2022/05/23 06:32:33;;;;;;;13.90;9.47;;;18.20;99.90;;;;;;5025463;28;20291;-55
2022/05/23 06:34:59;;;;;;;11.83;9.37;;;18.30;99.90;;;;;;5020574;28;20231;-54
2022/05/23 06:37:34;;;;;;;11.03;9.73;;;18.30;99.90;;;;;;5014685;28;20196;-54
2022/05/23 06:40:03;;;;;;;9.43;8.43;;;18.40;99.90;;;;;;5017921;28;20656;-54
2022/05/23 06:42:32;;;;;;;10.97;9.83;;;18.50;99.90;;;;;;5014252;28;20298;-54
2022/05/23 06:45:00;;;;;;;9.90;8.93;;;18.60;99.90;;;;;;5019169;28;20412;-54
2022/05/23 06:47:27;;;;;;;11.00;9.63;;;18.60;99.90;;;;;;5013584;28;20194;-54
2022/05/23 06:49:54;;;;;;;13.13;9.30;;;18.50;99.90;;;;;;5016791;28;22382;-55
2022/05/23 06:52:21;;;;;;;13.60;9.87;;;18.60;99.90;;;;;;5016361;28;20712;-54
2022/05/23 06:54:48;;;;;;;15.73;9.63;;;18.70;99.90;;;;;;5024058;28;20398;-54
2022/05/23 06:57:15;;;;;;;11.23;8.80;;;18.60;99.90;;;;;;5021031;28;20670;-54
2022/05/23 06:59:42;;;;;;;16.13;9.43;;;18.70;99.90;;;;;;5023139;28;20452;-54
2022/05/23 07:02:10;;;;;;;12.27;9.27;;;18.70;99.90;;;;;;5017201;28;20600;-54
2022/05/23 07:12:57;;;;;;;12.97;7.97;;;18.70;99.90;;;;;;5013999;28;20291;-53
2022/05/23 07:15:24;;;;;;;11.60;8.73;;;18.90;99.90;;;;;;5014003;28;20571;-54
2022/05/23 07:17:50;;;;;;;12.40;9.47;;;18.90;99.90;;;;;;5013730;28;20228;-54
2022/05/23 07:20:17;;;;;;;11.03;8.50;;;18.90;99.90;;;;;;5020248;28;20295;-53
2022/05/23 07:22:44;;;;;;;11.83;8.53;;;18.90;99.90;;;;;;5017817;28;20220;-54
2022/05/23 07:25:13;;;;;;;11.77;7.93;;;18.90;99.90;;;;;;5014110;28;20287;-54
2022/05/23 07:27:40;;;;;;;10.87;8.53;;;18.90;99.90;;;;;;5016435;28;20318;-54
2022/05/23 07:30:08;;;;;;;15.70;8.60;;;19.00;99.90;;;;;;5019008;28;20267;-54
2022/05/23 07:32:36;;;;;;;10.23;8.00;;;19.00;99.90;;;;;;5020075;28;20191;-54
2022/05/23 07:35:03;;;;;;;11.53;8.90;;;19.20;99.90;;;;;;5018692;28;20228;-54
2022/05/23 07:37:31;;;;;;;10.20;8.03;;;19.30;99.90;;;;;;5026230;28;20248;-54
2022/05/23 07:39:58;;;;;;;10.13;8.30;;;19.40;99.90;;;;;;5022670;28;20631;-53
2022/05/23 07:42:24;;;;;;;9.47;8.37;;;19.40;99.90;;;;;;5015075;28;20193;-53
2022/05/23 07:44:51;;;;;;;9.90;7.53;;;19.40;99.90;;;;;;5015177;28;20214;-53
2022/05/23 07:47:18;;;;;;;8.70;7.70;;;19.40;99.90;;;;;;5013143;28;20272;-54
2022/05/23 07:49:47;;;;;;;8.93;6.67;;;19.40;99.90;;;;;;5018094;28;20223;-54
2022/05/23 07:52:14;;;;;;;12.70;9.27;;;19.50;99.90;;;;;;5024333;28;20204;-59
2022/05/23 08:00:31;;;;;;;13.00;8.53;;;19.80;99.90;;;;;;5020121;28;20654;-55
2022/05/23 08:03:05;;;;;;;10.03;7.60;;;19.80;99.90;;;;;;5014612;28;20671;-54
2022/05/23 08:05:32;;;;;;;8.20;7.40;;;19.70;99.90;;;;;;5014855;28;20672;-55
2022/05/23 08:07:59;;;;;;;9.50;7.40;;;19.90;99.90;;;;;;5023001;28;20615;-55
2022/05/23 08:10:26;;;;;;;11.23;7.87;;;20.00;99.90;;;;;;5021652;28;20231;-55
2022/05/23 08:12:58;;;;;;;10.10;8.20;;;19.80;99.90;;;;;;5017819;28;20253;-53
2022/05/23 08:15:27;;;;;;;13.20;8.67;;;19.60;99.90;;;;;;5017280;28;20274;-55
2022/05/23 08:17:54;;;;;;;9.67;8.40;;;19.70;99.90;;;;;;5019350;28;20205;-54
2022/05/23 08:20:25;;;;;;;9.13;7.97;;;19.70;99.90;;;;;;5015310;28;20243;-53
2022/05/23 08:22:55;;;;;;;11.17;8.60;;;19.80;99.90;;;;;;5019243;28;20255;-53
2022/05/23 08:25:22;;;;;;;9.73;8.70;;;19.80;99.90;;;;;;5017048;28;20201;-53
2022/05/23 08:27:49;;;;;;;12.00;9.00;;;19.90;99.90;;;;;;5016628;28;20758;-54
2022/05/23 08:30:16;;;;;;;10.87;8.70;;;19.70;99.90;;;;;;5017974;28;20252;-54
2022/05/23 08:32:43;;;;;;;13.03;9.50;;;19.70;99.90;;;;;;5022240;28;20298;-54
2022/05/23 08:35:10;;;;;;;12.67;9.33;;;19.70;99.90;;;;;;5024830;28;20882;-53
2022/05/23 08:37:37;;;;;;;13.77;10.33;;;19.70;99.90;;;;;;5017835;28;20231;-54
2022/05/23 08:40:07;;;;;;;14.27;9.37;;;19.70;99.90;;;;;;5016617;28;20263;-54
2022/05/23 08:42:56;;;;;;;12.27;9.97;;;19.70;99.90;;;;;;5021654;28;20655;-54
2022/05/23 08:45:37;;;;;;;15.10;9.57;;;19.70;99.90;;;;;;5019864;28;20667;-54
2022/05/23 08:48:36;;;;;;;12.50;8.63;;;19.80;99.90;;;;;;5026463;28;20204;-54
2022/05/23 08:51:14;;;;;;;13.23;9.53;;;19.90;99.90;;;;;;5027966;28;20246;-54
2022/05/23 08:53:53;;;;;;;15.67;9.13;;;20.00;99.90;;;;;;5025120;28;20365;-54
2022/05/23 08:56:33;;;;;;;11.87;8.67;;;20.00;99.90;;;;;;5015176;28;20263;-54
2022/05/23 08:59:02;;;;;;;12.50;9.73;;;20.20;99.90;;;;;;5021808;28;20569;-59
2022/05/23 09:01:45;;;;;;;12.53;10.10;;;20.20;99.90;;;;;;5024775;28;20224;-53
2022/05/23 09:04:32;;;;;;;11.00;9.13;;;20.20;99.90;;;;;;5022342;28;20286;-55
2022/05/23 09:07:01;;;;;;;10.43;8.50;;;20.30;99.90;;;;;;5021409;28;20411;-54
2022/05/23 09:09:31;;;;;;;10.70;8.90;;;20.30;99.90;;;;;;5023074;28;20225;-54
2022/05/23 09:12:24;;;;;;;12.93;9.30;;;20.30;99.90;;;;;;5022938;28;20611;-55
2022/05/23 09:14:51;;;;;;;9.10;8.20;;;20.70;99.90;;;;;;5015203;28;20295;-54
2022/05/23 09:17:25;;;;;;;11.17;8.43;;;20.80;99.90;;;;;;5021877;28;20243;-54
2022/05/23 09:20:15;;;;;;;11.40;7.97;;;20.60;99.90;;;;;;5020523;28;20606;-58
2022/05/23 09:22:53;;;;;;;10.80;7.40;;;20.90;99.90;;;;;;5020841;28;20224;-55
2022/05/23 09:25:25;;;;;;;11.03;7.83;;;20.80;99.90;;;;;;5020851;28;20350;-55
2022/05/23 09:27:51;;;;;;;8.40;7.50;;;20.70;99.90;;;;;;5020608;28;20196;-54
2022/05/23 09:30:23;;;;;;;9.47;7.77;;;20.80;99.90;;;;;;5023970;28;20236;-55
2022/05/23 09:33:08;;;;;;;8.30;7.50;;;20.80;99.90;;;;;;5021662;28;20291;-55
2022/05/23 09:36:17;;;;;;;11.80;7.90;;;20.60;99.90;;;;;;5021177;28;20204;-54
2022/05/23 09:38:55;;;;;;;11.40;7.43;;;20.60;99.90;;;;;;4997433;28;20331;-54
2022/05/23 09:47:44;;;;;;;10.93;7.43;;;20.60;99.90;;;;;;5023419;28;20224;-54
2022/05/23 09:50:33;;;;;;;10.77;7.77;;;20.60;99.90;;;;;;5020236;28;20205;-56
2022/05/23 09:53:28;;;;;;;7.93;6.73;;;20.80;99.90;;;;;;5016892;28;20866;-54
2022/05/23 09:56:22;;;;;;;9.77;7.27;;;20.90;99.90;;;;;;5009822;28;20213;-55
2022/05/23 09:58:49;;;;;;;11.73;7.60;;;20.80;99.90;;;;;;5020906;28;20228;-54
2022/05/23 10:01:26;;;;;;;10.20;6.93;;;20.80;99.90;;;;;;5017231;28;20255;-54
2022/05/23 10:03:53;;;;;;;9.87;6.10;;;20.80;99.90;;;;;;5025899;28;20231;-54
2022/05/23 10:06:42;;;;;;;13.50;6.73;;;20.80;99.90;;;;;;5021559;28;20969;-54
2022/05/23 10:09:26;;;;;;;11.77;6.57;;;21.00;99.90;;;;;;5018128;28;20201;-54
2022/05/23 10:11:59;;;;;;;8.50;6.43;;;21.30;99.90;;;;;;5017915;28;20327;-53
2022/05/23 10:14:56;;;;;;;10.00;6.87;;;21.70;99.90;;;;;;5014678;28;20232;-53
2022/05/23 10:17:25;;;;;;;9.07;7.03;;;22.10;99.90;;;;;;5010144;28;20291;-54
2022/05/23 10:19:53;;;;;;;8.63;7.73;;;22.40;99.90;;;;;;5016585;28;20336;-55
2022/05/23 10:22:22;;;;;;;10.43;7.33;;;22.60;99.90;;;;;;5020906;28;20295;-54
2022/05/23 10:25:05;;;;;;;9.53;6.90;;;22.60;99.90;;;;;;5021834;28;20236;-53
2022/05/23 10:27:39;;;;;;;8.10;6.87;;;22.70;99.90;;;;;;5021207;28;20197;-54
2022/05/23 10:30:08;;;;;;;11.13;7.47;;;22.50;99.90;;;;;;5015098;28;20684;-55
2022/05/23 10:32:48;;;;;;;7.97;6.57;;;22.40;99.90;;;;;;5021145;28;20743;-54
2022/05/23 10:35:26;;;;;;;8.70;6.43;;;22.40;99.90;;;;;;5018156;28;20220;-55
2022/05/23 10:42:06;;;;;;;11.03;6.83;;;22.30;99.90;;;;;;5010303;28;20774;-54
2022/05/23 10:43:28;;;;;;;9.63;6.43;;;22.70;99.90;;;;;;5019182;28;20637;-55
2022/05/23 10:46:00;;;;;;;10.47;6.70;;;22.80;99.90;;;;;;5018433;28;20199;-54
2022/05/23 10:48:48;;;;;;;9.17;6.60;;;22.90;99.90;;;;;;5017066;28;20287;-55
2022/05/23 10:51:41;;;;;;;8.10;6.90;;;23.00;99.90;;;;;;5018508;28;20215;-54
2022/05/23 10:54:44;;;;;;;10.50;6.63;;;23.10;99.90;;;;;;5013984;28;20200;-54
2022/05/23 10:57:32;;;;;;;9.23;6.00;;;23.00;85.90;;;;;;5013641;28;20642;-54
2022/05/23 11:00:16;;;;;;;9.97;6.10;;;22.80;99.90;;;;;;5009963;28;20313;-55
2022/05/23 11:03:29;;;;;;;9.10;5.23;;;23.20;99.90;;;;;;5031352;28;20247;-55
2022/05/23 11:06:02;;;;;;;10.73;6.57;;;23.50;96.00;;;;;;5013880;28;20649;-54
2022/05/23 11:08:35;;;;;;;10.40;7.13;;;23.10;92.20;;;;;;5017094;28;20546;-55
2022/05/23 11:11:23;;;;;;;8.77;6.60;;;23.00;93.00;;;;;;5007099;28;20224;-54
2022/05/23 11:14:08;;;;;;;8.00;6.43;;;23.10;92.70;;;;;;5012354;28;20652;-54
2022/05/23 11:16:51;;;;;;;8.60;4.67;;;23.40;79.50;;;;;;5016970;28;20562;-55
2022/05/23 11:19:25;;;;;;;8.07;6.50;;;24.10;86.40;;;;;;5022657;28;20220;-55
2022/05/23 11:22:06;;;;;;;7.37;6.20;;;24.20;1.00;;;;;;5010828;28;20252;-54
2022/05/23 11:24:59;;;;;;;8.47;6.17;;;24.20;1.00;;;;;;5010922;28;20252;-55
2022/05/23 11:36:09;;;;;;;9.27;6.30;;;24.20;3.20;;;;;;5018414;28;20203;-57
2022/05/23 11:38:45;;;;;;;10.20;6.03;;;23.90;1.00;;;;;;5015648;28;20248;-54
2022/05/23 11:41:38;;;;;;;8.00;6.60;;;23.60;7.20;;;;;;5013017;28;20763;-54
2022/05/23 11:44:34;;;;;;;13.80;6.30;;;23.50;6.30;;;;;;5012820;28;20215;-54
2022/05/23 11:47:07;;;;;;;6.80;5.57;;;23.30;32.30;;;;;;5007233;28;20298;-54
2022/05/23 11:49:45;;;;;;;9.63;6.37;;;23.20;31.00;;;;;;5022325;28;20289;-54
2022/05/23 11:52:29;;;;;;;8.63;6.00;;;23.20;19.10;;;;;;5019482;28;20744;-55
2022/05/23 11:54:56;;;;;;;10.60;6.13;;;23.30;58.90;;;;;;5022572;28;20233;-55
2022/05/23 11:57:38;;;;;;;10.87;6.37;;;23.40;61.10;;;;;;5015478;28;20901;-53
2022/05/23 12:00:27;;;;;;;8.23;6.33;;;23.30;47.40;;;;;;5020014;28;20208;-54
2022/05/23 12:03:23;;;;;;;8.47;7.33;;;23.40;56.20;;;;;;5014726;28;20228;-54
2022/05/23 12:06:33;;;;;;;7.83;6.33;;;23.50;32.00;;;;;;5013430;28;20219;-55
2022/05/23 12:09:02;;;;;;;8.70;6.50;;;23.50;56.50;;;;;;5024992;28;20192;-54
2022/05/23 12:11:41;;;;;;;9.53;7.10;;;23.40;99.90;;;;;;5023865;28;20289;-57
2022/05/23 12:14:26;;;;;;;11.53;7.30;;;23.40;67.90;;;;;;5022412;28;20307;-54
2022/05/23 12:16:55;;;;;;;11.93;6.90;;;23.50;87.00;;;;;;5011220;28;20713;-56
2022/05/23 12:19:33;;;;;;;7.50;6.00;;;23.50;94.20;;;;;;5021842;28;20283;-57
2022/05/23 12:22:22;;;;;;;8.57;5.87;;;23.50;99.90;;;;;;5019007;28;20940;-55
2022/05/23 12:24:55;;;;;;;11.13;6.00;;;23.40;53.20;;;;;;5022628;28;20295;-54
2022/05/23 12:27:33;;;;;;;9.10;6.10;;;23.30;62.60;;;;;;5017370;28;20227;-54
2022/05/23 12:30:20;;;;;;;8.57;5.43;;;23.30;67.40;;;;;;5019427;28;20298;-54
2022/05/23 12:33:04;;;;;;;8.97;5.50;;;23.20;47.30;;;;;;5021290;28;20336;-54
2022/05/23 12:35:39;;;;;;;9.30;5.67;;;23.20;60.10;;;;;;5019130;28;20287;-54
2022/05/23 12:38:18;;;;;;;7.90;5.60;;;23.00;86.90;;;;;;5024823;28;20239;-55
2022/05/23 12:41:03;;;;;;;8.77;5.67;;;23.10;99.90;;;;;;5021763;28;20256;-55
2022/05/23 12:43:54;;;;;;;8.50;5.53;;;23.20;99.90;;;;;;5014448;28;20264;-54
2022/05/23 12:46:44;;;;;;;11.97;6.00;;;23.20;94.60;;;;;;5017251;28;20201;-54
2022/05/23 12:49:27;;;;;;;5.30;4.30;;;23.20;72.40;;;;;;5016758;28;20232;-53
2022/05/23 12:52:14;;;;;;;8.33;4.77;;;23.10;65.60;;;;;;5020247;28;20681;-54
2022/05/23 12:55:25;;;;;;;5.00;4.03;;;23.10;78.70;;;;;;5019741;28;20223;-54
2022/05/23 12:58:28;;;;;;;10.20;4.67;;;23.00;95.30;;;;;;5013453;28;20259;-59
2022/05/23 13:00:55;;;;;;;7.43;4.17;;;23.00;95.30;;;;;;5014465;28;20745;-54
2022/05/23 13:03:48;;;;;;;6.97;3.87;;;23.10;99.90;;;;;;5017525;28;20732;-53
2022/05/23 13:06:34;;;;;;;4.30;3.73;;;23.10;99.90;;;;;;5019609;28;20815;-54
2022/05/23 13:09:03;;;;;;;4.73;3.40;;;23.20;94.70;;;;;;5015669;28;20299;-54
2022/05/23 13:11:39;;;;;;;8.17;4.00;;;23.10;65.40;;;;;;5014133;28;20798;-55
2022/05/23 13:14:06;;;;;;;4.43;3.13;;;23.10;33.00;;;;;;5013235;28;20834;-53
2022/05/23 13:16:37;;;;;;;5.20;3.63;;;23.20;53.00;;;;;;5018927;28;20882;-56
2022/05/23 13:22:12;;;;;;;6.23;3.43;;;23.20;71.40;;;;;;5025040;28;20747;-55
2022/05/23 13:24:56;;;;;;;6.57;3.47;;;23.20;91.20;;;;;;5015267;28;20197;-54
2022/05/23 13:27:43;;;;;;;3.80;3.20;;;23.20;85.90;;;;;;5018059;28;20718;-54
2022/05/23 13:30:24;;;;;;;3.63;3.20;;;23.20;99.90;;;;;;5020077;28;20232;-54
2022/05/23 13:33:11;;;;;;;5.40;3.23;;;23.10;96.70;;;;;;5016408;28;20288;-54
2022/05/23 13:35:39;;;;;;;6.17;3.20;;;23.00;94.40;;;;;;5017732;28;20295;-54
2022/05/23 13:38:16;;;;;;;4.17;3.20;;;23.00;99.90;;;;;;5015154;28;20640;-54
2022/05/23 13:40:47;;;;;;;5.20;3.13;;;22.90;99.90;;;;;;5025912;28;20207;-54
2022/05/23 13:43:28;;;;;;;2.70;2.47;;;22.90;99.90;;;;;;5021240;28;20230;-54
2022/05/23 13:46:25;;;;;;;4.17;2.87;;;22.80;99.90;;;;;;5015093;28;20202;-54
2022/05/23 13:49:07;;;;;;;5.57;2.50;;;22.60;99.90;;;;;;5024746;28;20719;-54
2022/05/23 13:51:40;;;;;;;5.93;3.10;;;22.40;99.90;;;;;;5023526;28;20597;-54
2022/05/23 13:54:28;;;;;;;4.70;3.20;;;22.20;99.90;;;;;;5021308;28;20235;-53
2022/05/23 13:56:59;;;;;;;7.17;3.80;;;22.20;99.90;;;;;;5023764;28;20230;-55
2022/05/23 13:59:30;;;;;;;4.90;3.30;;;21.90;99.90;;;;;;5016285;28;20305;-55
2022/05/23 14:02:06;;;;;;;6.77;3.90;;;21.70;99.90;;;;;;5016879;28;20279;-54
2022/05/23 14:04:38;;;;;;;5.20;3.50;;;21.60;99.90;;;;;;5014061;28;20212;-53
2022/05/23 14:07:16;;;;;;;7.40;6.10;;;21.50;99.90;;;;;;5001814;28;20754;-53
2022/05/23 14:09:50;;;;;;;12.13;7.97;;;20.90;99.90;;;;;;5014987;28;20621;-54
2022/05/23 14:12:21;;;;;;;14.63;9.17;;;20.10;99.90;;;;;;5009836;28;20278;-53
2022/05/23 14:15:10;;;;;;;13.63;8.30;;;19.80;99.90;;;;;;5012345;28;20607;-53